To NAV CANADA Home Page Login to a new session Search on AWWS site Feedback and Comments Disclaimer Vers la page française équivalente Tips FAQ What's new on the site To the Forecasts and Observations / NOTAM section To "File a Flight Plan" website Publications and other links Update of the User's profile FIC Telephone Numbers My Weather Data Folder Route Weather Data Regional Weather Data Local Weather Data To the Forecasts and Observations / NOTAM section
Request Generated 04/19/2015 at 14:06:07 UTC . Weather information available at that time is displayed.

METAR/TAF

WHITEHORSE/ERIK NIELSEN INTL/YT    

METAR CYXY 191400Z 16012KT 40SM FEW050 BKN180 BKN220 02/M03 A2996 RMK
SC2AC3CI2 SLP178=
METAR CYXY 191300Z 15013G18KT 30SM FEW060 BKN160 BKN220 02/M03 A2997
RMK SC2AC3CI2 SLP180=
METAR CYXY 191200Z 16014G20KT 15SM FEW060 BKN160 BKN220 03/M03 A2999
RMK SC2AC3CI2 SLP187=

TAF CYXY 191138Z 1912/1924 16015G25KT P6SM FEW060 BKN160
RMK NXT FCST BY 191800Z=
Your time UTC time
Weather data provided by Environment Canada and NAV CANADA